Terminal Aerodrome Forecast
Issued by NWS

Home | Current Version | Previous Version | Text Only | Print | Product List | Glossary On
Versions: 1 2 3 4 5 6 7 8 9 10 11 12 13 14 15 16 17 18
000
FTUS41 KPHI 181100
TAFPNE
TAF
KPNE 181120Z 1812/1912 05005KT P6SM OVC024
     FM181500 09005KT P6SM SCT028 BKN250
      TEMPO 1815/1817 BKN028
     FM181700 13006KT P6SM OVC150
     FM190300 19003KT P6SM BKN150
     FM190800 VRB03KT 6SM BR FEW060=

USA.gov is the U.S. government's official web portal to all federal, state and local government web resources and services.